Hauptseite
METAR-TAF:

METAR-TAF

Flughäfen :

Militärflugplatz Leeuwarden

Leeuwarden, Niederlande

Breite: 53-13N, Länge: 005-46E, Höhe: 1 m

Beobachtung

Neuester Wetterbericht von vor 23 Minuten, um 04:55 UTC
Wind 8 kt aus Nordwest, variierte zwischen West und Nord
Temperatur 13°C
Luftfeuchtigkeit 82%
Luftdruck 1023 hPa
Sichtweite 10 km oder mehr
Leicht bewölkt in der Höhe von 1700 ft
Geschlossene Wolkendecke in der Höhe von 9800 ft

METAR: EHLW 240455Z AUTO 32008KT 280V360 9999 FEW017 OVC098 13/10 Q1023 BLU

Zeit: 07:18 (05:18 UTC)


TAF: fehlend

Wetterbeobachtungen und Prognosen von mehr als 4000 Flughäfen (METAR und TAF Bericht).

Die verfügbaren Stationen werden durch gelbe und rote Markierungen auf der Karte dargestellt.

Führen Sie die Maus auf sie, um den Namen der Station zu sehen.

Darauf klicken, um die Beobachtung von Wetterbeobachtungen und Prognosen zu sehen.

Um die Karte zu ändern : klicken Sie auf den grünen Tasten mit einem schwarzen Kreuz Zum Vergrößern, auf den grünen Button mit einem Gedankenstrich zu verkleinern, oder auf die grünen Pfeile für benachbarte Karten.


METAR-TAF: